ADDS METAR Data INFO
IDs: Format: Raw Decoded Include TAF

Data at: 0043 UTC 23 Oct 2017

KCKM 230035Z AUTO 30005KT 10SM 18/18 A3000 RMK A01
KCKM 230015Z AUTO 29006KT 10SM 18/18 A3001 RMK A01
KCKM 222355Z AUTO 29008KT 10SM 18/18 A3000 RMK A01
KCKM 222335Z AUTO 28010KT 10SM 18/18 A3001 RMK A01
KCKM 222315Z AUTO 26008KT 10SM 18/18 A3001 RMK A01
KCKM 222255Z AUTO 27007G13KT 10SM 19/19 A2999 RMK A01
KCKM 222235Z AUTO 26008KT 10SM 19/19 A2999 RMK A01
KCKM 222215Z AUTO 25007KT 10SM 19/19 A2999 RMK A01
KCKM 222155Z AUTO 35003KT 10SM 19/19 A2995 RMK A01 P0001
KCKM 222135Z AUTO 29004KT 10SM 19/19 A2997 RMK A01
KCKM 222115Z AUTO 27005KT 10SM 19/19 A2998 RMK A01
KCKM 222055Z AUTO 26006KT 10SM 19/19 A3000 RMK A01
KCKM 222035Z AUTO 26007KT 10SM 19/19 A3000 RMK A01
KCKM 222015Z AUTO 25008KT 10SM 19/19 A3001 RMK A01
KCKM 221955Z AUTO 25005KT 8SM 19/19 A3000 RMK A01 P0001
KCKM 221935Z AUTO 25007KT 10SM 19/19 A3000 RMK A01
KCKM 221915Z AUTO 26007KT 10SM 19/19 A3001 RMK A01
KCKM 221855Z AUTO 22009KT 10SM 19/19 A3002 RMK A01
KCKM 221835Z AUTO 19003KT 10SM 19/19 A3000 RMK A01
KCKM 221815Z AUTO 00000KT 10SM 19/19 A3001 RMK A01
KCKM 221755Z AUTO 24003KT 10SM 19/19 A3000 RMK A01
KCKM 221735Z AUTO 25007G13KT 10SM 19/19 A3002 RMK A01
KCKM 221715Z AUTO 23005KT 10SM 20/20 A3002 RMK A01
KCKM 221655Z AUTO 14005KT 10SM 20/20 A3003 RMK A01 P0001
KCKM 221635Z AUTO 00000KT 2SM BR 19/19 A3003 RMK A01
KCKM 221615Z AUTO 07005KT 10SM 19/19 A3001 RMK A01
KCKM 221555Z AUTO 02003KT 10SM 19/19 A3001 RMK A01 P0001
KCKM 221535Z AUTO 00000KT 10SM 19/19 A3001 RMK A01
KCKM 221515Z AUTO 28005KT 10SM 18/18 A3003 RMK A01
KCKM 221455Z AUTO 31005G11KT 10SM 18/18 A3002 RMK A01 P0001
KCKM 221435Z AUTO 30008KT 10SM 18/18 A3002 RMK A01
KCKM 221415Z AUTO 30009KT 4SM BR 18/18 A3002 RMK A01
KCKM 221355Z AUTO 29009KT 3SM BR 18/18 A3002 RMK A01 P0001
KCKM 221335Z AUTO 28014KT 8SM 20/20 A3001 RMK A01
KCKM 221315Z AUTO 14009KT 10SM 22/20 A2999 RMK A01
KCKM 221255Z AUTO 14009KT 10SM 22/20 A2998 RMK A01
KCKM 221235Z AUTO 14012G17KT 10SM 22/19 A2999 RMK A01
KCKM 221215Z AUTO 13009KT 10SM 22/19 A2998 RMK A01
KCKM 221155Z AUTO 13010KT 10SM 21/20 A2997 RMK A01
KCKM 221135Z AUTO 13007KT 10SM 21/21 A2999 RMK A01
KCKM 221115Z AUTO 14006KT 10SM 20/20 A3000 RMK A01
KCKM 221055Z AUTO 13006KT 10SM 21/21 A3000 RMK A01
KCKM 221035Z AUTO 14006KT 10SM 20/20 A3001 RMK A01
KCKM 221015Z AUTO 19003KT 10SM 21/21 A3002 RMK A01
KCKM 220955Z AUTO 17004KT 10SM 21/21 A3001 RMK A01
KCKM 220935Z AUTO 17007KT 10SM 22/21 A3000 RMK A01
KCKM 220915Z AUTO 17007KT 10SM 22/21 A3000 RMK A01
KCKM 220855Z AUTO 16008KT 10SM 23/21 A2999 RMK A01
KCKM 220835Z AUTO 15010KT 10SM 23/20 A2998 RMK A01
KCKM 220815Z AUTO 15012KT 10SM 23/21 A2998 RMK A01
KCKM 220755Z AUTO 15010G15KT 10SM 23/21 A2999 RMK A01
KCKM 220735Z AUTO 15011KT 10SM 23/21 A2998 RMK A01
KCKM 220715Z AUTO 14010G16KT 10SM 23/21 A2999 RMK A01
KCKM 220655Z AUTO 14009KT 10SM 23/22 A2999 RMK A01
KCKM 220635Z AUTO 14009KT 10SM 23/22 A3001 RMK A01
KCKM 220615Z AUTO 14010KT 10SM 23/22 A3001 RMK A01
KCKM 220555Z AUTO 13007KT 22/22 A3001 RMK A01
KCKM 220535Z AUTO 13007KT 10SM 22/21 A3002 RMK A01
KCKM 220515Z AUTO 14007KT 10SM 23/21 A3003 RMK A01
KCKM 220455Z AUTO 14009KT 10SM 23/21 A3003 RMK A01
KCKM 220435Z AUTO 13008KT 10SM 23/21 A3004 RMK A01
KCKM 220415Z AUTO 13009KT 10SM 23/21 A3004 RMK A01
KCKM 220355Z AUTO 13013KT 10SM 24/20 A3005 RMK A01
KCKM 220335Z AUTO 13010G17KT 10SM 24/20 A3005 RMK A01
KCKM 220315Z AUTO 14010G16KT 10SM 24/20 A3007 RMK A01
KCKM 220255Z AUTO 14010KT 10SM 24/21 A3007 RMK A01
KCKM 220235Z AUTO 13009KT 10SM 24/20 A3006 RMK A01
KCKM 220215Z AUTO 12008G15KT 10SM 24/20 A3004 RMK A01
KCKM 220155Z AUTO 11013KT 10SM 24/20 A3002 RMK A01
KCKM 220135Z AUTO 11011G16KT 10SM 24/20 A3004 RMK A01
KCKM 220115Z AUTO 11010G16KT 10SM 24/21 A3004 RMK A01
KCKM 220055Z AUTO 12010G16KT 10SM 25/21 A3005 RMK A01
KCKM 220035Z AUTO 11009KT 10SM 25/21 A3005 RMK A01
KCKM 220015Z AUTO 11010KT 10SM 25/20 A3004 RMK A01
KCKM 212355Z AUTO 10010KT 10SM 25/20 A3003 RMK A01
KCKM 212335Z AUTO 11010KT 10SM 26/19 A3003 RMK A01
KCKM 212315Z AUTO 12008KT 10SM 26/18 A3002 RMK A01
KCKM 212255Z AUTO 12009KT 27/18 A3003 RMK A01
KCKM 212235Z AUTO 13009KT 10SM 27/18 A3003 RMK A01
KCKM 212215Z AUTO 13012KT 10SM 28/18 A3002 RMK A01
KCKM 212155Z AUTO 12010KT 10SM 28/18 A3003 RMK A01
KCKM 212135Z AUTO 12009KT 10SM 28/18 A3003 RMK A01
KCKM 212115Z AUTO 12009G15KT 10SM 29/18 A3003 RMK A01
KCKM 212055Z AUTO 14008KT 10SM 28/18 A3003 RMK A01
KCKM 212035Z AUTO 15011KT 10SM 28/18 A3003 RMK A01
KCKM 212015Z AUTO 14009G16KT 10SM 28/18 A3003 RMK A01
KCKM 211955Z AUTO 13010KT 10SM 28/17 A3004 RMK A01
KCKM 211935Z AUTO 15011G16KT 10SM 28/18 A3004 RMK A01
KCKM 211915Z AUTO 15013G20KT 10SM 29/19 A3005 RMK A01
KCKM 211855Z AUTO 15012G19KT 10SM 29/19 A3005 RMK A01
KCKM 211835Z AUTO 14013KT 10SM 28/19 A3006 RMK A01
KCKM 211815Z AUTO 14013G20KT 10SM 28/19 A3007 RMK A01
KCKM 211755Z AUTO 16016KT 10SM 28/19 A3008 RMK A01
KCKM 211735Z AUTO 14014G20KT 10SM 28/19 A3009 RMK A01
KCKM 211715Z AUTO 14010KT 10SM 28/18 A3010 RMK A01
KCKM 211655Z AUTO 14012G17KT 10SM 27/18 A3010 RMK A01
KCKM 211635Z AUTO 14011KT 10SM 26/16 A3011 RMK A01
KCKM 211615Z AUTO 14009KT 10SM 25/15 A3011 RMK A01
KCKM 211555Z AUTO 14008KT 10SM 24/15 A3012 RMK A01
KCKM 211535Z AUTO 13009KT 10SM 22/15 A3012 RMK A01
KCKM 211515Z AUTO 13008KT 10SM 22/14 A3012 RMK A01
KCKM 211455Z AUTO 13009KT 10SM 21/15 A3012 RMK A01
KCKM 211435Z AUTO 13006KT 10SM 20/15 A3013 RMK A01
KCKM 211415Z AUTO 13006KT 10SM 20/15 A3012 RMK A01
KCKM 211355Z AUTO 13006KT 10SM 19/15 A3012 RMK A01
KCKM 211335Z AUTO 12004KT 10SM 18/16 A3012 RMK A01
KCKM 211315Z AUTO 11006KT 10SM 17/16 A3011 RMK A01
KCKM 211255Z AUTO 12005KT 10SM 17/16 A3011 RMK A01